• Join FlightAware (Why Join?)
  • Login
  • US Flag 
Trick or treat! (Boo!!) 
06:23PM EDT


 

Airport Tracker/Info


-or-


 

Live Flight TrackerFlight Track Log ✈ SKW5631 ✈ 23-Jul-2013 ✈ KSFO - KBUR

Flight Track Log - Related Links

Times and Time Zones

All times are in EDT time to prevent confusion due to time zone crossing. See the SKW5631 flight status page for this flight to view local times or setup timezone preferences in your user account.

Time Position Orientation Groundspeed Altitude Reporting Facility
EDT Latitude Longitude Course Direction KTS MPH feet Rate Location/Type
10:01PM 37.6333 -122.3667 130° Southeast 155 178 500  Level Northern Cal TRACON
10:02PM 37.6833 -122.3667 360° North 184 212 2,200 2,100 Climbing Northern Cal TRACON
10:03PM 37.7000 -122.4167 293° West 221 254 4,700 2,460 Climbing Northern Cal TRACON
10:04PM 37.6500 -122.4333 195° South 226 260 7,200 2,460 Climbing Northern Cal TRACON
10:05PM 37.3502 -122.2268 136° Southeast  Level FlightAware Approximate
10:05PM 37.5833 -122.4667 202° Southwest 236 272 9,700  Level Northern Cal TRACON
10:06PM 37.2618 -122.1010 130° Southeast  Level FlightAware Approximate
10:06PM 37.5167 -122.4333 158° South 281 323 10,700  Level Northern Cal TRACON
10:07PM 37.4108 -122.3839 160° South 304 350 12,700 1,440 Climbing Oakland Center
10:08PM 37.3439 -122.3042 137° Southeast 328 377 14,000 1,620 Climbing Oakland Center
10:09PM 37.2747 -122.2247 138° Southeast 338 389 16,000 1,800 Climbing Oakland Center
10:10PM 37.2061 -122.1464 138° Southeast 334 384 17,700 1,440 Climbing Oakland Center
10:11PM 37.1350 -122.0681 139° Southeast 341 392 19,000 1,080 Climbing Oakland Center
10:12PM 37.0594 -121.9867 139° Southeast 355 409 20,000 960 Climbing Oakland Center
10:13PM 36.9842 -121.8983 137° Southeast 370 426 21,000 900 Climbing Oakland Center
10:14PM 36.9050 -121.8111 139° Southeast 380 437 21,900 900 Climbing Oakland Center
10:15PM 36.8044 -121.7072 140° Southeast 391 450 22,900 780 Climbing Oakland Center
10:16PM 36.7328 -121.6253 137° Southeast 401 461 23,600 900 Climbing Oakland Center
10:17PM 36.6500 -121.5333 138° Southeast 400 460 24,800 1,140 Climbing Oakland Center
10:18PM 36.5689 -121.4436 138° Southeast 392 451 26,000 960 Climbing Oakland Center
10:20PM 36.4711 -121.3378 139° Southeast 389 448 26,800 480 Climbing Oakland Center
10:21PM 36.3889 -121.2475 139° Southeast 396 456 27,000 60 Climbing Oakland Center
10:22PM 36.3061 -121.1556 138° Southeast 399 459 27,000  Level Oakland Center
10:23PM 36.2225 -121.0656 139° Southeast 397 457 27,000  Level Oakland Center
10:24PM 36.1406 -120.9764 139° Southeast 393 452 27,000  Level Oakland Center
10:25PM 36.0586 -120.8883 139° Southeast 392 451 27,000  Level Oakland Center
10:26PM 35.9775 -120.7997 139° Southeast 390 449 27,000  Level Oakland Center
10:27PM 35.8961 -120.7131 139° Southeast 387 445 27,000  Level Oakland Center
10:28PM 35.8147 -120.6247 139° Southeast 389 448 27,000  Level Oakland Center
10:29PM 35.7336 -120.5389 139° Southeast 386 444 27,000  Level Oakland Center
10:30PM 35.6514 -120.4519 139° Southeast 388 447 27,000  Level Oakland Center
10:31PM 35.5542 -120.3481 139° Southeast 384 442 27,000  Level Oakland Center
10:32PM 35.4722 -120.2583 138° Southeast 385 443 27,000  Level Oakland Center
10:33PM 35.4014 -120.1847 140° Southeast 394 453 27,000  Level Oakland Center
10:34PM 35.3036 -120.0828 140° Southeast 389 448 27,000 -240 Level Oakland Center
10:35PM 35.2208 -119.9969 140° Southeast 389 448 26,600 -720 Descending Oakland Center
10:36PM 35.1364 -119.9094 140° Southeast 393 452 25,600 -1,020 Descending Oakland Center
10:37PM 35.0539 -119.8153 137° Southeast 402 463 24,600 -900 Descending Oakland Center
10:38PM 34.9800 -119.7108 131° Southeast 405 466 23,800 -1,020 Descending Oakland Center
10:39PM 34.9061 -119.6097 132° Southeast 400 460 22,600 -1,620 Descending Oakland Center
10:40PM 34.8344 -119.5156 133° Southeast 385 443 20,500 -2,040 Descending Oakland Center
10:41PM 34.7675 -119.4244 132° Southeast 368 423 18,500 -1,980 Descending Oakland Center
10:42PM 34.7025 -119.3361 132° Southeast 356 410 16,500 -1,860 Descending Oakland Center
10:43PM 34.6383 -119.2528 133° Southeast 344 396 14,800 -1,800 Descending Oakland Center
10:44PM 34.5464 -119.1308 132° Southeast 323 372 12,300 -1,620 Descending Los Angeles Center
10:45PM 34.4867 -119.0497 132° Southeast 320 368 11,000 -660 Descending Los Angeles Center
10:46PM 34.4272 -118.9692 132° Southeast 320 368 11,000 -720 Level Los Angeles Center
10:47PM 34.3711 -118.8925 132° Southeast 302 348 9,600 -1,440 Descending Los Angeles Center
10:48PM 34.3242 -118.8122 125° Southeast 291 335 8,100 -1,500 Descending Los Angeles Center
10:49PM 34.2756 -118.7361 128° Southeast 285 328 6,500 -1,740 Descending Los Angeles Center
10:50PM 34.2294 -118.6575 125° Southeast 286 329 4,600 -1,260 Descending Los Angeles Center
10:52PM 34.2014 -118.5797 114° Southeast 254 292 4,000 -780 Descending Los Angeles Center
10:53PM 34.1997 -118.4825 91° East 220 253 2,900 -1,020 Descending Los Angeles Center
10:54PM 34.1986 -118.4256 91° East 193 222 1,700 -660 Descending Los Angeles Center
10:55PM 34.1994 -118.3767 89° East 185 213 1,600 -120 Descending Los Angeles Center